Main page
METAR-TAF:

METAR-TAF

Airports :

Chièvres Air Base

Chièvres, Belgium

latitude: 50-34N, longitude: 003-50E, elevation: 60 m

Current weather observation

The report was made 18 minutes ago, at 05:39 UTC
Wind 4 kt from the South/Southwest
Temperature 0°C
Humidity 100%
Pressure 1026 hPa
Visibility: 3600 m
mist

METAR: EBCV 110539Z AUTO 21004KT 3600 BR NCD M00/M00 Q1026 YLO

Time: 06:57 (05:57 UTC)

Forecast

The report was made 14 hours and 16 minutes ago, at 15:41 UTC
Forecast valid from 10 at 19 UTC to 11 at 07 UTC
Wind 6 kt from the West
Visibility 10 km or more
Few clouds at a height of 2000 ft
Scattered clouds at a height of 2500 ft
Temporary
from 10 at 19 UTC to 11 at 07 UTC
Scattered clouds at a height of 1500 ft
Broken clouds at a height of 2000 ft

TAF: EBCV 101541Z 1019/1107 28006KT 9999 FEW020 SCT025 TEMPO 1019/1107 SCT015 BKN020 BY EBWM

Weather observations and forecasts of more than 4000 airports (METAR and TAF reports).

The available stations are represented by yellow and red dots on the map.

Hover mouse over dot to see the name of the station.

Then click to see weather observations and forecasts.

To change the map : click on the green buttons with a black cross to zoom in, on the green button with a dash to zoom out, or on the green arrows for adjacent maps.


METAR-TAF: